Time;durP1;ratioP1;P1;durP2;ratioP2;P2;SDS_P1;SDS_P2;PMS_P1;PMS_P2;Temp;Humidity;BMP_temperature;BMP_pressure;BME280_temperature;BME280_humidity;BME280_pressure;Samples;Min_cycle;Max_cycle;Signal;HPM_P1;HPM_P2
2021/08/15 00:01:54;;;;;;;0.00;0.00;;;16.00;99.90;;;;;;5037257;28;20048;-87
2021/08/15 00:04:41;;;;;;;0.00;0.00;;;16.00;99.90;;;;;;5047496;28;20052;-87
2021/08/15 00:07:29;;;;;;;0.00;0.00;;;15.90;99.90;;;;;;5052931;28;20158;-87
2021/08/15 00:10:17;;;;;;;0.00;0.00;;;15.90;99.90;;;;;;5057816;28;20037;-88
2021/08/15 00:13:04;;;;;;;0.00;0.00;;;16.00;99.90;;;;;;5051691;28;20294;-86
2021/08/15 00:15:51;;;;;;;0.00;0.00;;;16.10;99.90;;;;;;5086121;22;20055;-81
2021/08/15 00:18:39;;;;;;;0.00;0.00;;;16.10;99.90;;;;;;5053395;28;20047;-83
2021/08/15 00:21:26;;;;;;;0.00;0.00;;;16.00;99.90;;;;;;5061178;28;20069;-83
2021/08/15 00:24:14;;;;;;;0.00;0.00;;;16.00;99.90;;;;;;5063755;28;20040;-84
2021/08/15 00:27:02;;;;;;;0.03;0.03;;;16.00;99.90;;;;;;5082356;28;20054;-83
2021/08/15 00:29:49;;;;;;;0.00;0.00;;;16.00;99.90;;;;;;5078359;28;20556;-84
2021/08/15 00:32:37;;;;;;;0.00;0.00;;;16.00;99.90;;;;;;5084337;28;20536;-83
2021/08/15 00:35:24;;;;;;;0.00;0.00;;;16.00;99.90;;;;;;5083592;28;20040;-84
2021/08/15 00:38:11;;;;;;;0.00;0.00;;;16.10;99.90;;;;;;5072122;28;20051;-84
2021/08/15 00:41:00;;;;;;;0.00;0.00;;;16.10;99.90;;;;;;5079476;28;20036;-84
2021/08/15 00:43:48;;;;;;;0.00;0.00;;;16.10;99.90;;;;;;5081026;28;20488;-84
2021/08/15 00:46:38;;;;;;;0.00;0.00;;;16.00;99.90;;;;;;5060084;28;20044;-81
2021/08/15 00:49:25;;;;;;;0.00;0.00;;;16.00;99.90;;;;;;5081024;28;20044;-82
2021/08/15 00:52:12;;;;;;;0.00;0.00;;;16.00;99.90;;;;;;5063278;28;20046;-84
2021/08/15 00:55:01;;;;;;;0.00;0.00;;;15.90;99.90;;;;;;5056246;28;20045;-81
2021/08/15 00:57:50;;;;;;;0.00;0.00;;;15.90;99.90;;;;;;5064623;28;20076;-83
2021/08/15 01:00:37;;;;;;;0.00;0.00;;;17.10;99.90;;;;;;5053931;28;20033;-84
2021/08/15 01:03:24;;;;;;;0.00;0.00;;;15.80;99.90;;;;;;5065238;28;20040;-84
2021/08/15 01:06:12;;;;;;;0.00;0.00;;;15.80;99.90;;;;;;5075666;28;20119;-84
2021/08/15 01:09:01;;;;;;;0.00;0.00;;;15.80;99.90;;;;;;5068309;28;20120;-83
2021/08/15 01:11:48;;;;;;;0.00;0.00;;;15.80;99.90;;;;;;5071393;28;20104;-84
2021/08/15 01:14:36;;;;;;;0.00;0.00;;;15.80;99.90;;;;;;5067062;28;20049;-84
2021/08/15 01:17:24;;;;;;;0.00;0.00;;;15.70;99.90;;;;;;5069980;28;20051;-83
2021/08/15 01:20:12;;;;;;;0.00;0.00;;;15.70;99.90;;;;;;5082941;28;20055;-80
2021/08/15 01:22:59;;;;;;;0.00;0.00;;;15.70;99.90;;;;;;5078243;28;20044;-84
2021/08/15 01:25:46;;;;;;;0.00;0.00;;;15.60;99.90;;;;;;5081774;28;20050;-83
2021/08/15 01:28:35;;;;;;;0.00;0.00;;;15.70;99.90;;;;;;5058944;28;20049;-83
2021/08/15 01:31:23;;;;;;;0.00;0.00;;;15.60;99.90;;;;;;5078968;28;20066;-82
2021/08/15 01:34:10;;;;;;;0.00;0.00;;;15.70;99.90;;;;;;5093444;28;20052;-84
2021/08/15 01:36:57;;;;;;;0.00;0.00;;;15.60;99.90;;;;;;5098075;28;20103;-83
2021/08/15 01:39:44;;;;;;;0.00;0.00;;;15.70;99.90;;;;;;5078569;28;20032;-84
2021/08/15 01:42:33;;;;;;;0.00;0.00;;;15.60;99.90;;;;;;5089176;28;20077;-84
2021/08/15 01:45:21;;;;;;;0.00;0.00;;;15.60;99.90;;;;;;5081447;28;20044;-84
2021/08/15 01:48:08;;;;;;;0.00;0.00;;;15.60;99.90;;;;;;5083220;28;20036;-81
2021/08/15 01:50:55;;;;;;;0.00;0.00;;;15.60;99.90;;;;;;5082993;28;20470;-83
2021/08/15 01:53:44;;;;;;;0.00;0.00;;;15.60;99.90;;;;;;5080625;28;20047;-82
2021/08/15 01:56:31;;;;;;;0.00;0.00;;;15.60;99.90;;;;;;5073156;28;20039;-81
2021/08/15 01:59:18;;;;;;;0.00;0.00;;;15.60;99.90;;;;;;5094856;28;20125;-84
2021/08/15 02:02:06;;;;;;;0.00;0.00;;;15.50;99.90;;;;;;5081268;28;20119;-81
2021/08/15 02:04:54;;;;;;;0.00;0.00;;;15.50;99.90;;;;;;5094641;28;20040;-84
2021/08/15 02:07:41;;;;;;;0.00;0.00;;;15.50;99.90;;;;;;5084932;28;20048;-84
2021/08/15 02:10:30;;;;;;;0.00;0.00;;;15.50;99.90;;;;;;5074594;28;20036;-83
2021/08/15 02:13:17;;;;;;;0.00;0.00;;;15.40;99.90;;;;;;5081767;28;20319;-84
2021/08/15 02:16:04;;;;;;;0.00;0.00;;;15.20;99.90;;;;;;5076847;28;20074;-83
2021/08/15 02:18:53;;;;;;;0.00;0.00;;;15.20;99.90;;;;;;5077626;28;20548;-85
2021/08/15 02:21:40;;;;;;;0.00;0.00;;;15.30;99.90;;;;;;5083786;28;20051;-84
2021/08/15 02:24:27;;;;;;;0.00;0.00;;;15.30;99.90;;;;;;5076418;28;20040;-84
2021/08/15 02:27:14;;;;;;;0.00;0.00;;;15.20;99.90;;;;;;5081030;28;20046;-81
2021/08/15 02:30:02;;;;;;;0.00;0.00;;;15.00;99.90;;;;;;5076380;28;20048;-80
2021/08/15 02:32:50;;;;;;;0.00;0.00;;;15.00;99.90;;;;;;5081692;28;20040;-83
2021/08/15 02:35:38;;;;;;;0.00;0.00;;;14.90;99.90;;;;;;5079347;28;20618;-83
2021/08/15 02:38:26;;;;;;;0.00;0.00;;;15.00;99.90;;;;;;5074496;28;20099;-83
2021/08/15 02:41:13;;;;;;;0.00;0.00;;;15.00;99.90;;;;;;5081447;28;20040;-84
2021/08/15 02:44:00;;;;;;;0.00;0.00;;;15.10;99.90;;;;;;5083408;28;20040;-84
2021/08/15 02:46:47;;;;;;;0.00;0.00;;;15.10;99.90;;;;;;5084157;28;20126;-84
2021/08/15 02:49:35;;;;;;;0.00;0.00;;;15.10;99.90;;;;;;5077694;28;20422;-81
2021/08/15 02:52:23;;;;;;;0.00;0.00;;;15.10;99.90;;;;;;5087706;28;20048;-84
2021/08/15 02:55:11;;;;;;;0.00;0.00;;;15.10;99.90;;;;;;5086499;28;20576;-80
2021/08/15 02:57:58;;;;;;;0.00;0.00;;;15.00;99.90;;;;;;5097663;28;20139;-84
2021/08/15 03:00:45;;;;;;;0.00;0.00;;;15.00;99.90;;;;;;5080901;28;20044;-84
2021/08/15 03:03:32;;;;;;;0.00;0.00;;;15.00;99.90;;;;;;5083024;28;20415;-84
2021/08/15 03:06:19;;;;;;;0.00;0.00;;;14.90;99.90;;;;;;5082179;28;20123;-84
2021/08/15 03:09:08;;;;;;;0.00;0.00;;;15.00;99.90;;;;;;5095764;28;20067;-84
2021/08/15 03:11:55;;;;;;;0.00;0.00;;;15.00;99.90;;;;;;5083473;28;20055;-81
2021/08/15 03:14:42;;;;;;;0.00;0.00;;;15.00;99.90;;;;;;5078026;28;20044;-84
2021/08/15 03:17:30;;;;;;;0.00;0.00;;;15.00;99.90;;;;;;5098046;28;20071;-84
2021/08/15 03:20:17;;;;;;;0.00;0.00;;;15.00;99.90;;;;;;5095612;28;20149;-83
2021/08/15 03:23:04;;;;;;;0.00;0.00;;;14.90;99.90;;;;;;5079249;28;20036;-82
2021/08/15 03:25:52;;;;;;;0.00;0.00;;;14.90;99.90;;;;;;5086256;28;20468;-83
2021/08/15 03:28:39;;;;;;;0.00;0.00;;;14.90;99.90;;;;;;5091246;28;20043;-84
2021/08/15 03:31:27;;;;;;;0.00;0.00;;;14.90;99.90;;;;;;5074648;28;20040;-84
2021/08/15 03:34:19;;;;;;;0.00;0.00;;;14.90;99.90;;;;;;5086165;28;20044;-84
2021/08/15 03:37:06;;;;;;;0.00;0.00;;;14.90;99.90;;;;;;5080035;28;20040;-80
2021/08/15 03:39:53;;;;;;;0.00;0.00;;;14.90;99.90;;;;;;5082847;28;20071;-82
2021/08/15 03:42:42;;;;;;;0.00;0.00;;;14.80;99.90;;;;;;5087063;28;20048;-84
2021/08/15 03:45:29;;;;;;;0.00;0.00;;;14.90;99.90;;;;;;5099049;28;20515;-83
2021/08/15 03:48:16;;;;;;;0.00;0.00;;;14.80;99.90;;;;;;5086803;28;20052;-83
2021/08/15 03:51:03;;;;;;;0.00;0.00;;;14.80;99.90;;;;;;5098732;28;20040;-84
2021/08/15 03:53:51;;;;;;;0.00;0.00;;;14.90;99.90;;;;;;5087036;28;20044;-84
2021/08/15 03:56:38;;;;;;;0.00;0.00;;;14.90;99.90;;;;;;5086936;28;20039;-81
2021/08/15 03:59:26;;;;;;;0.00;0.00;;;14.90;99.90;;;;;;5085714;28;20051;-83
2021/08/15 04:02:13;;;;;;;0.00;0.00;;;14.90;99.90;;;;;;5087397;28;20173;-84
2021/08/15 04:05:01;;;;;;;0.00;0.00;;;14.90;99.90;;;;;;5078543;28;20033;-83
2021/08/15 04:07:48;;;;;;;0.00;0.00;;;14.90;99.90;;;;;;5084973;28;20054;-84
2021/08/15 04:10:36;;;;;;;0.00;0.00;;;15.00;99.90;;;;;;5089418;28;20032;-83
2021/08/15 04:13:23;;;;;;;0.00;0.00;;;15.00;99.90;;;;;;5078834;28;20121;-84
2021/08/15 04:16:11;;;;;;;0.10;0.10;;;15.00;99.90;;;;;;5086327;28;20099;-84
2021/08/15 04:18:58;;;;;;;0.00;0.00;;;15.00;99.90;;;;;;5086821;28;20039;-84
2021/08/15 04:21:46;;;;;;;0.00;0.00;;;14.90;99.90;;;;;;5096460;28;20044;-84
2021/08/15 04:24:33;;;;;;;0.10;0.10;;;14.90;99.90;;;;;;5082279;28;20510;-86
2021/08/15 04:27:20;;;;;;;0.00;0.00;;;15.00;99.90;;;;;;5084807;28;20052;-84
2021/08/15 04:30:09;;;;;;;0.00;0.00;;;15.10;99.90;;;;;;5080080;28;20039;-84
2021/08/15 04:32:57;;;;;;;0.00;0.00;;;15.10;99.90;;;;;;5096314;28;20096;-82
2021/08/15 04:35:45;;;;;;;0.00;0.00;;;15.10;99.90;;;;;;5084084;28;20525;-84
2021/08/15 04:38:32;;;;;;;0.00;0.00;;;15.20;99.90;;;;;;5087538;28;20063;-82
2021/08/15 04:41:20;;;;;;;0.00;0.00;;;15.20;99.90;;;;;;5081379;28;20040;-81
2021/08/15 04:44:07;;;;;;;0.00;0.00;;;15.10;99.90;;;;;;5078600;28;20052;-84
2021/08/15 04:46:54;;;;;;;0.00;0.00;;;15.10;99.90;;;;;;5084037;28;20410;-84
2021/08/15 04:49:42;;;;;;;0.00;0.00;;;15.10;99.90;;;;;;5077909;28;20055;-77
2021/08/15 04:52:29;;;;;;;0.00;0.00;;;15.10;99.90;;;;;;5070038;28;20486;-84
2021/08/15 04:55:16;;;;;;;0.00;0.00;;;15.00;99.90;;;;;;5081269;28;20108;-83
2021/08/15 04:58:04;;;;;;;0.00;0.00;;;15.10;99.90;;;;;;5082937;28;20586;-84
2021/08/15 05:00:51;;;;;;;0.00;0.00;;;15.10;99.90;;;;;;5077532;28;20095;-82
2021/08/15 05:03:38;;;;;;;0.00;0.00;;;15.20;99.90;;;;;;5083982;28;20056;-85
2021/08/15 05:06:27;;;;;;;0.00;0.00;;;15.30;99.90;;;;;;5084361;28;20159;-81
2021/08/15 05:09:14;;;;;;;0.00;0.00;;;15.20;99.90;;;;;;5094700;28;20127;-84
2021/08/15 05:12:01;;;;;;;0.00;0.00;;;15.20;99.90;;;;;;5078647;28;20035;-82
2021/08/15 05:14:49;;;;;;;0.00;0.00;;;15.20;99.90;;;;;;5092574;28;20596;-84
2021/08/15 05:17:36;;;;;;;0.00;0.00;;;15.30;99.90;;;;;;5086180;28;20040;-84
2021/08/15 05:20:23;;;;;;;0.00;0.00;;;15.30;99.90;;;;;;5078647;28;20044;-84
2021/08/15 05:23:12;;;;;;;0.00;0.00;;;15.20;99.90;;;;;;5082204;28;20075;-84
2021/08/15 05:25:59;;;;;;;0.00;0.00;;;15.20;99.90;;;;;;5079985;28;20047;-84
2021/08/15 05:28:46;;;;;;;0.00;0.00;;;15.30;99.90;;;;;;5077687;28;20036;-84
2021/08/15 05:31:33;;;;;;;0.00;0.00;;;15.30;99.90;;;;;;5074301;28;20032;-83
2021/08/15 05:34:20;;;;;;;0.00;0.00;;;15.30;99.90;;;;;;5080317;28;20036;-84
2021/08/15 05:37:08;;;;;;;0.00;0.00;;;15.20;99.90;;;;;;5083313;28;20039;-83
2021/08/15 05:39:56;;;;;;;0.00;0.00;;;15.30;99.90;;;;;;5079822;28;20036;-84
2021/08/15 05:42:44;;;;;;;0.00;0.00;;;15.40;99.90;;;;;;5077984;28;20040;-84
2021/08/15 05:45:31;;;;;;;0.00;0.00;;;15.40;99.90;;;;;;5081673;28;20127;-85
2021/08/15 05:48:18;;;;;;;0.00;0.00;;;15.50;99.90;;;;;;5092539;28;20607;-81
2021/08/15 05:51:07;;;;;;;0.00;0.00;;;15.50;99.90;;;;;;5085720;28;20115;-80
2021/08/15 05:53:54;;;;;;;0.00;0.00;;;15.60;99.90;;;;;;5079624;28;20066;-84
2021/08/15 05:56:42;;;;;;;0.00;0.00;;;15.60;99.90;;;;;;5074209;28;20487;-84
2021/08/15 05:59:29;;;;;;;0.00;0.00;;;15.70;99.90;;;;;;5062129;28;20058;-84
2021/08/15 06:02:16;;;;;;;0.00;0.00;;;15.80;99.90;;;;;;5058892;28;20032;-81
2021/08/15 06:05:05;;;;;;;0.00;0.00;;;15.90;99.90;;;;;;5059286;28;20040;-85
2021/08/15 06:07:52;;;;;;;0.00;0.00;;;16.00;99.90;;;;;;5060324;28;20125;-83
2021/08/15 06:10:39;;;;;;;0.00;0.00;;;16.30;99.90;;;;;;5061301;28;20104;-81
2021/08/15 06:13:27;;;;;;;0.00;0.00;;;16.50;99.90;;;;;;5052488;28;20131;-84
2021/08/15 06:18:48;;;;;;;0.00;0.00;;;17.00;99.90;;;;;;5050677;28;20095;-88
2021/08/15 06:21:35;;;;;;;0.00;0.00;;;17.20;99.90;;;;;;5048760;28;20047;-87
2021/08/15 06:24:23;;;;;;;0.00;0.00;;;17.40;99.90;;;;;;5029846;28;20408;-88
2021/08/15 06:27:10;;;;;;;0.00;0.00;;;17.40;99.90;;;;;;5011874;28;20041;-88
2021/08/15 06:29:58;;;;;;;0.00;0.00;;;17.40;99.90;;;;;;5034388;28;20045;-87
2021/08/15 06:32:47;;;;;;;0.00;0.00;;;17.30;99.90;;;;;;5015871;28;20128;-88
2021/08/15 06:35:35;;;;;;;0.00;0.00;;;17.40;99.90;;;;;;5032303;28;20037;-86
2021/08/15 06:38:22;;;;;;;0.00;0.00;;;17.60;99.90;;;;;;5028469;28;20056;-87
2021/08/15 06:41:09;;;;;;;0.00;0.00;;;17.80;99.90;;;;;;5010574;28;20408;-86
2021/08/15 06:43:56;;;;;;;0.00;0.00;;;18.00;99.90;;;;;;5030941;28;20118;-87
2021/08/15 06:46:45;;;;;;;0.00;0.00;;;18.20;99.90;;;;;;5030192;28;20061;-87
2021/08/15 06:49:32;;;;;;;0.00;0.00;;;18.20;99.90;;;;;;5027892;28;20520;-88
2021/08/15 06:52:19;;;;;;;0.00;0.00;;;18.40;99.90;;;;;;5021853;28;20052;-87
2021/08/15 06:55:07;;;;;;;0.00;0.00;;;18.50;99.90;;;;;;5010514;28;20501;-88
2021/08/15 06:57:54;;;;;;;0.00;0.00;;;18.60;99.90;;;;;;5034708;28;20064;-86
2021/08/15 07:00:41;;;;;;;0.00;0.00;;;18.70;99.90;;;;;;5030983;28;20072;-85
2021/08/15 07:03:29;;;;;;;0.00;0.00;;;18.80;99.90;;;;;;5027921;28;20052;-86
2021/08/15 07:06:17;;;;;;;0.00;0.00;;;;;;;;;;5014886;28;20053;-87
2021/08/15 07:09:04;;;;;;;0.00;0.00;;;19.10;99.90;;;;;;5032409;28;20509;-86
2021/08/15 07:11:51;;;;;;;0.00;0.00;;;19.30;99.90;;;;;;5031595;28;20087;-88
2021/08/15 07:14:41;;;;;;;0.00;0.00;;;19.40;99.90;;;;;;5030103;28;20040;-86
2021/08/15 07:17:29;;;;;;;0.00;0.00;;;19.50;99.90;;;;;;5034855;28;20041;-85
2021/08/15 07:20:17;;;;;;;0.00;0.00;;;19.40;99.90;;;;;;5030237;28;20056;-85
2021/08/15 07:23:05;;;;;;;0.00;0.00;;;19.30;99.90;;;;;;5028029;28;20041;-84
2021/08/15 07:25:52;;;;;;;0.00;0.00;;;19.30;99.90;;;;;;5034060;28;20561;-87
2021/08/15 07:28:39;;;;;;;0.00;0.00;;;19.40;99.90;;;;;;5036293;28;20092;-86
2021/08/15 07:31:26;;;;;;;0.00;0.00;;;19.60;99.90;;;;;;5030404;28;20044;-85
2021/08/15 07:34:13;;;;;;;0.00;0.00;;;19.70;99.90;;;;;;5020433;28;20052;-85
2021/08/15 07:37:02;;;;;;;0.00;0.00;;;19.80;99.90;;;;;;5055954;28;20033;-88
2021/08/15 07:39:49;;;;;;;0.00;0.00;;;19.90;99.90;;;;;;5017967;28;20124;-89
2021/08/15 07:42:36;;;;;;;0.00;0.00;;;20.10;99.90;;;;;;5027305;28;20077;-87
2021/08/15 07:45:25;;;;;;;0.00;0.00;;;20.10;99.90;;;;;;5019273;28;20041;-86
2021/08/15 07:48:12;;;;;;;0.00;0.00;;;20.10;99.90;;;;;;5015568;28;20050;-87
2021/08/15 07:51:00;;;;;;;0.00;0.00;;;20.00;99.90;;;;;;5020126;28;20060;-87
2021/08/15 07:53:49;;;;;;;0.00;0.00;;;19.90;99.90;;;;;;5031921;28;20045;-88
2021/08/15 07:56:36;;;;;;;0.00;0.00;;;19.70;99.90;;;;;;5032481;28;20045;-88
2021/08/15 07:59:23;;;;;;;0.00;0.00;;;19.70;99.90;;;;;;5034354;28;20064;-88
2021/08/15 08:02:10;;;;;;;0.00;0.00;;;19.80;99.90;;;;;;5033903;28;20037;-88
2021/08/15 08:04:57;;;;;;;0.00;0.00;;;19.70;99.90;;;;;;5032117;28;20065;-88
2021/08/15 08:07:45;;;;;;;0.00;0.00;;;19.70;99.90;;;;;;5018725;28;20063;-86
2021/08/15 08:10:34;;;;;;;0.00;0.00;;;19.70;99.90;;;;;;5026296;28;20130;-87
2021/08/15 08:13:22;;;;;;;;;;;19.70;99.90;;;;;;5031836;28;20053;-86
2021/08/15 08:16:09;;;;;;;0.00;0.00;;;19.70;99.90;;;;;;5033111;28;20012;-87
2021/08/15 08:18:56;;;;;;;0.00;0.00;;;19.80;99.90;;;;;;5032181;28;20045;-86
2021/08/15 08:21:44;;;;;;;0.00;0.00;;;19.80;99.90;;;;;;5016421;28;20038;-85
2021/08/15 08:24:31;;;;;;;0.00;0.00;;;19.90;99.90;;;;;;5017649;28;20037;-89
2021/08/15 08:27:20;;;;;;;0.00;0.00;;;20.00;99.90;;;;;;5030253;28;20408;-88
2021/08/15 08:30:08;;;;;;;;;;;20.10;99.90;;;;;;5025049;28;20049;-88
2021/08/15 08:32:55;;;;;;;0.00;0.00;;;20.20;99.90;;;;;;5014257;28;19936;-85
2021/08/15 08:35:42;;;;;;;0.00;0.00;;;20.20;99.90;;;;;;5027266;28;20049;-88
2021/08/15 08:38:29;;;;;;;0.00;0.00;;;20.20;99.90;;;;;;5032498;28;20131;-85
2021/08/15 08:41:17;;;;;;;0.00;0.00;;;20.20;99.90;;;;;;5027806;28;20041;-88
2021/08/15 08:44:06;;;;;;;0.00;0.00;;;20.20;99.90;;;;;;5024855;28;20195;-87
2021/08/15 08:46:57;;;;;;;0.00;0.00;;;20.30;99.90;;;;;;5030785;28;20100;-88
2021/08/15 08:49:44;;;;;;;0.00;0.00;;;20.40;99.90;;;;;;5027243;28;20095;-89
2021/08/15 08:52:31;;;;;;;0.00;0.00;;;20.50;99.90;;;;;;5028884;28;20497;-88
2021/08/15 08:55:19;;;;;;;0.00;0.00;;;20.80;99.90;;;;;;5041133;28;20400;-86
2021/08/15 08:58:07;;;;;;;0.00;0.00;;;20.90;99.90;;;;;;5032737;28;20580;-87
2021/08/15 09:00:55;;;;;;;0.00;0.00;;;21.10;99.90;;;;;;5027340;28;20428;-88
2021/08/15 09:03:43;;;;;;;0.00;0.00;;;21.20;99.90;;;;;;5027905;28;20124;-89
2021/08/15 09:06:31;;;;;;;0.00;0.00;;;21.20;99.90;;;;;;5028419;28;20061;-85
2021/08/15 09:09:20;;;;;;;0.00;0.00;;;21.30;99.90;;;;;;5041238;28;20057;-88
2021/08/15 09:12:07;;;;;;;0.00;0.00;;;21.40;99.90;;;;;;5023557;28;20091;-86
2021/08/15 09:15:07;;;;;;;0.00;0.00;;;21.80;99.90;;;;;;5016938;28;20132;-89
2021/08/15 09:17:55;;;;;;;0.00;0.00;;;22.20;99.90;;;;;;5021470;28;20061;-89
2021/08/15 09:20:44;;;;;;;0.00;0.00;;;22.20;99.90;;;;;;5027867;28;20124;-87
2021/08/15 09:23:34;;;;;;;0.00;0.00;;;22.30;99.90;;;;;;5025250;28;20600;-89
2021/08/15 09:26:25;;;;;;;0.00;0.00;;;22.30;99.90;;;;;;5026216;28;20038;-89
2021/08/15 09:29:17;;;;;;;0.00;0.00;;;22.30;99.90;;;;;;5042630;28;20046;-87
2021/08/15 09:32:04;;;;;;;0.00;0.00;;;22.20;99.90;;;;;;5016137;28;20217;-88
2021/08/15 09:34:57;;;;;;;0.00;0.00;;;22.20;99.90;;;;;;5015196;28;20041;-87
2021/08/15 09:37:45;;;;;;;0.00;0.00;;;22.30;99.90;;;;;;5023355;28;20034;-88
2021/08/15 09:40:35;;;;;;;0.00;0.00;;;22.40;99.90;;;;;;5023930;28;20483;-88
2021/08/15 09:43:23;;;;;;;0.00;0.00;;;22.40;99.90;;;;;;5029566;28;20030;-89
2021/08/15 09:46:10;;;;;;;0.00;0.00;;;22.50;99.90;;;;;;5015455;28;20041;-89
2021/08/15 09:49:12;;;;;;;0.00;0.00;;;22.70;99.90;;;;;;5020290;28;20073;-87
2021/08/15 09:52:01;;;;;;;0.00;0.00;;;22.80;99.90;;;;;;5033337;28;20059;-88
2021/08/15 09:54:53;;;;;;;0.00;0.00;;;23.10;99.90;;;;;;5007250;28;20052;-87
2021/08/15 09:57:41;;;;;;;0.00;0.00;;;23.20;99.90;;;;;;5025944;28;20101;-88
2021/08/15 10:00:31;;;;;;;0.00;0.00;;;23.40;99.90;;;;;;5024434;28;20053;-86
2021/08/15 10:03:19;;;;;;;0.00;0.00;;;23.50;99.00;;;;;;5010983;28;20047;-88
2021/08/15 10:06:06;;;;;;;0.00;0.00;;;23.50;99.70;;;;;;5009720;28;20046;-88
2021/08/15 10:08:57;;;;;;;0.00;0.00;;;23.60;99.50;;;;;;5030225;28;20426;-87
2021/08/15 10:11:45;;;;;;;0.00;0.00;;;23.70;99.90;;;;;;5016395;28;20130;-88
2021/08/15 10:14:38;;;;;;;0.00;0.00;;;23.80;99.90;;;;;;5031395;28;20421;-88
2021/08/15 10:17:29;;;;;;;0.00;0.00;;;23.80;99.90;;;;;;5021198;28;20085;-86
2021/08/15 10:20:20;;;;;;;0.00;0.00;;;23.80;99.80;;;;;;5024496;28;20889;-86
2021/08/15 10:23:10;;;;;;;0.00;0.00;;;23.70;99.40;;;;;;5025051;28;20045;-88
2021/08/15 10:25:58;;;;;;;0.00;0.00;;;23.50;98.50;;;;;;5024982;28;20516;-86
2021/08/15 10:28:45;;;;;;;0.00;0.00;;;23.40;98.00;;;;;;5026133;28;20777;-87
2021/08/15 10:32:10;;;;;;;0.00;0.00;;;23.40;98.80;;;;;;5021797;28;20049;-87
2021/08/15 10:35:16;;;;;;;0.00;0.00;;;23.50;99.20;;;;;;5040162;28;20187;-87
2021/08/15 10:38:06;;;;;;;0.00;0.00;;;23.90;99.30;;;;;;5015291;28;20574;-86
2021/08/15 10:40:54;;;;;;;0.00;0.00;;;24.00;99.80;;;;;;5027342;28;20584;-87
2021/08/15 10:44:03;;;;;;;0.00;0.00;;;24.30;98.40;;;;;;5029268;28;20076;-86
2021/08/15 10:47:13;;;;;;;0.00;0.00;;;24.30;97.30;;;;;;5037966;28;20129;-88
2021/08/15 10:50:03;;;;;;;0.00;0.00;;;24.50;95.80;;;;;;5023164;28;20045;-88
2021/08/15 10:52:50;;;;;;;0.00;0.00;;;24.30;95.40;;;;;;5033672;28;20046;-87
2021/08/15 10:55:42;;;;;;;0.00;0.00;;;24.40;95.70;;;;;;5025469;28;20037;-88
2021/08/15 10:58:37;;;;;;;0.00;0.00;;;24.60;96.70;;;;;;5024101;28;20069;-87
2021/08/15 11:01:44;;;;;;;0.00;0.00;;;24.60;95.00;;;;;;5026746;28;20497;-87
2021/08/15 11:04:32;;;;;;;0.00;0.00;;;24.70;95.20;;;;;;5024812;28;20030;-83
2021/08/15 11:07:33;;;;;;;0.00;0.00;;;24.90;96.20;;;;;;5026243;28;20145;-87
2021/08/15 11:10:20;;;;;;;0.00;0.00;;;25.10;95.60;;;;;;5032974;28;20045;-84
2021/08/15 11:13:14;;;;;;;0.00;0.00;;;25.30;94.70;;;;;;5029243;28;20489;-87
2021/08/15 11:16:34;;;;;;;0.00;0.00;;;25.20;94.90;;;;;;5028685;28;20079;-85
2021/08/15 11:19:31;;;;;;;0.00;0.00;;;25.00;94.30;;;;;;5027765;28;20057;-88
2021/08/15 11:22:28;;;;;;;0.00;0.00;;;25.00;95.10;;;;;;5024757;28;20507;-85
2021/08/15 11:25:25;;;;;;;0.00;0.00;;;25.20;94.40;;;;;;5027397;28;20164;-86
2021/08/15 11:28:13;;;;;;;0.00;0.00;;;25.10;95.10;;;;;;5017781;28;20121;-87
2021/08/15 11:31:00;;;;;;;0.00;0.00;;;25.10;94.90;;;;;;5020568;28;20140;-85
2021/08/15 11:34:05;;;;;;;0.00;0.00;;;25.30;95.30;;;;;;5030637;28;20520;-87
2021/08/15 11:36:59;;;;;;;0.00;0.00;;;25.30;96.20;;;;;;5021951;28;20481;-83
2021/08/15 11:39:46;;;;;;;0.00;0.00;;;25.20;94.60;;;;;;5027188;28;20104;-84
2021/08/15 11:42:34;;;;;;;0.00;0.00;;;25.10;93.40;;;;;;5020273;28;20132;-86
2021/08/15 11:45:27;;;;;;;0.00;0.00;;;25.10;93.30;;;;;;5020278;28;20045;-88
2021/08/15 11:48:16;;;;;;;0.00;0.00;;;25.10;93.60;;;;;;5012358;28;20049;-88
2021/08/15 11:51:08;;;;;;;0.00;0.00;;;25.10;95.30;;;;;;5036315;28;20089;-88
2021/08/15 11:53:56;;;;;;;0.00;0.00;;;25.00;95.40;;;;;;5035041;28;20037;-89
2021/08/15 11:56:43;;;;;;;0.00;0.00;;;25.00;95.10;;;;;;5029170;28;20049;-88
2021/08/15 11:59:30;;;;;;;0.00;0.00;;;25.10;95.30;;;;;;5005747;28;20056;-87
2021/08/15 12:02:21;;;;;;;0.00;0.00;;;25.30;95.10;;;;;;5026107;28;20049;-89
2021/08/15 12:05:10;;;;;;;0.00;0.00;;;25.60;96.30;;;;;;5022319;28;20172;-89
2021/08/15 12:08:02;;;;;;;0.00;0.00;;;25.90;96.60;;;;;;5035954;28;20056;-88
2021/08/15 12:10:53;;;;;;;0.00;0.00;;;26.10;94.90;;;;;;5026288;28;20056;-88
2021/08/15 12:13:40;;;;;;;0.00;0.00;;;;;;;;;;5036181;28;20147;-87
2021/08/15 12:21:35;;;;;;;0.00;0.00;;;26.60;93.90;;;;;;5032672;28;20417;-82
2021/08/15 12:24:25;;;;;;;;;;;26.80;94.60;;;;;;5032243;28;20053;-85
2021/08/15 12:27:14;;;;;;;;;;;26.50;93.80;;;;;;5037708;28;19928;-84
2021/08/15 12:30:01;;;;;;;0.00;0.00;;;26.70;94.10;;;;;;5041920;28;19931;-86
2021/08/15 12:32:48;;;;;;;0.00;0.00;;;26.60;92.30;;;;;;5036544;28;20057;-85
2021/08/15 12:35:35;;;;;;;0.00;0.00;;;26.30;95.00;;;;;;5038853;28;20136;-84
2021/08/15 12:38:28;;;;;;;0.00;0.00;;;26.40;93.50;;;;;;5018595;28;20064;-84
2021/08/15 12:41:27;;;;;;;0.00;0.00;;;26.50;92.40;;;;;;5028195;28;20147;-84
2021/08/15 12:44:18;;;;;;;0.00;0.00;;;26.60;92.10;;;;;;5043858;28;20052;-84
2021/08/15 12:47:07;;;;;;;0.00;0.00;;;26.70;92.60;;;;;;5037846;28;20049;-85
2021/08/15 12:50:10;;;;;;;0.00;0.00;;;26.70;91.80;;;;;;5038302;28;20055;-85
2021/08/15 12:52:59;;;;;;;0.00;0.00;;;26.70;93.20;;;;;;5041753;28;20049;-83
2021/08/15 12:55:48;;;;;;;0.00;0.00;;;27.00;92.90;;;;;;5052151;28;20044;-85
2021/08/15 12:58:35;;;;;;;0.00;0.00;;;27.00;91.00;;;;;;5061264;28;20056;-84
2021/08/15 13:01:23;;;;;;;0.00;0.00;;;27.00;92.00;;;;;;5039313;28;20041;-83
2021/08/15 13:04:11;;;;;;;0.00;0.00;;;27.00;92.70;;;;;;5042108;28;20041;-85
2021/08/15 13:06:58;;;;;;;0.00;0.00;;;27.00;92.40;;;;;;5037895;28;20177;-85
2021/08/15 13:09:45;;;;;;;0.00;0.00;;;26.90;91.50;;;;;;5052301;28;20170;-84
2021/08/15 13:12:33;;;;;;;0.00;0.00;;;27.00;92.50;;;;;;5036702;28;20575;-85
2021/08/15 13:15:21;;;;;;;0.00;0.00;;;27.20;92.80;;;;;;5039758;28;20128;-85
2021/08/15 13:18:09;;;;;;;0.00;0.00;;;27.30;91.70;;;;;;5037815;28;20049;-86
2021/08/15 13:20:57;;;;;;;0.00;0.00;;;27.40;91.40;;;;;;5034149;28;20041;-86
2021/08/15 13:23:44;;;;;;;0.00;0.00;;;27.40;91.50;;;;;;5042107;28;20044;-82
2021/08/15 13:26:31;;;;;;;0.00;0.00;;;27.20;92.30;;;;;;5036197;28;20040;-86
2021/08/15 13:29:18;;;;;;;0.00;0.00;;;27.10;91.50;;;;;;5036182;28;20048;-85
2021/08/15 13:32:06;;;;;;;0.00;0.00;;;27.00;90.70;;;;;;5037771;28;20049;-85
2021/08/15 13:34:57;;;;;;;0.00;0.00;;;26.80;90.60;;;;;;5038570;28;20413;-85
2021/08/15 13:37:44;;;;;;;0.00;0.00;;;27.10;89.40;;;;;;5032005;28;20041;-84
2021/08/15 13:40:32;;;;;;;0.00;0.00;;;26.60;89.20;;;;;;5033370;28;20451;-84
2021/08/15 13:43:19;;;;;;;0.00;0.00;;;26.80;90.50;;;;;;5036220;28;20067;-85
2021/08/15 13:46:06;;;;;;;0.00;0.00;;;26.90;89.20;;;;;;5035967;28;20055;-87
2021/08/15 13:48:54;;;;;;;0.00;0.00;;;27.20;89.90;;;;;;5024429;28;20049;-85
2021/08/15 13:51:42;;;;;;;0.00;0.00;;;27.50;89.60;;;;;;5036524;28;20163;-84
2021/08/15 13:54:29;;;;;;;0.00;0.00;;;27.80;90.60;;;;;;5028336;28;20046;-84
2021/08/15 13:57:16;;;;;;;0.00;0.00;;;28.00;90.70;;;;;;5021339;28;20521;-84
2021/08/15 14:00:05;;;;;;;0.00;0.00;;;28.30;90.30;;;;;;5049274;28;20404;-84
2021/08/15 14:02:52;;;;;;;0.00;0.00;;;28.20;88.90;;;;;;5026672;28;20556;-85
2021/08/15 14:05:40;;;;;;;0.00;0.00;;;28.20;90.20;;;;;;5036359;28;20041;-83
2021/08/15 14:08:28;;;;;;;0.00;0.00;;;28.20;88.20;;;;;;5051882;28;20137;-85
2021/08/15 14:11:16;;;;;;;0.00;0.00;;;28.30;87.80;;;;;;5030670;28;20049;-82
2021/08/15 14:14:04;;;;;;;0.00;0.00;;;28.40;87.90;;;;;;5029806;28;20449;-81
2021/08/15 14:16:52;;;;;;;0.00;0.00;;;28.10;85.70;;;;;;5015085;28;20053;-79
2021/08/15 14:19:40;;;;;;;0.00;0.00;;;28.00;88.70;;;;;;5023934;28;20420;-80
2021/08/15 14:22:28;;;;;;;0.00;0.00;;;28.30;87.70;;;;;;5039035;28;20036;-85
2021/08/15 14:25:16;;;;;;;0.00;0.00;;;28.70;87.50;;;;;;5028646;28;20131;-84
2021/08/15 14:28:04;;;;;;;0.00;0.00;;;28.90;87.00;;;;;;5039991;28;20397;-85
2021/08/15 14:30:51;;;;;;;0.00;0.00;;;29.00;87.10;;;;;;5033651;28;20045;-86
2021/08/15 14:33:38;;;;;;;0.00;0.00;;;29.20;84.90;;;;;;5024917;28;20540;-84
2021/08/15 14:36:25;;;;;;;0.00;0.00;;;28.80;85.00;;;;;;5035425;28;20043;-85
2021/08/15 14:39:12;;;;;;;0.00;0.00;;;28.50;84.60;;;;;;5049009;28;20127;-84
2021/08/15 14:42:01;;;;;;;0.00;0.00;;;28.30;86.00;;;;;;5039352;28;20415;-86
2021/08/15 14:44:48;;;;;;;0.00;0.00;;;28.30;87.30;;;;;;5047846;28;20096;-85
2021/08/15 14:47:35;;;;;;;0.00;0.00;;;28.50;87.50;;;;;;5037534;28;20067;-85